Time;durP1;ratioP1;P1;durP2;ratioP2;P2;SDS_P1;SDS_P2;PMS_P1;PMS_P2;Temp;Humidity;BMP_temperature;BMP_pressure;BME280_temperature;BME280_humidity;BME280_pressure;Samples;Min_cycle;Max_cycle;Signal;HPM_P1;HPM_P2
2023/10/01 00:00:47;;;;;;;945.88;848.47;;;14.50;99.90;;;;;;4827252;29;20049;-88
2023/10/01 00:03:14;;;;;;;899.05;809.72;;;14.60;99.90;;;;;;4827429;29;20057;-89
2023/10/01 00:05:41;;;;;;;916.33;825.75;;;14.60;99.90;;;;;;4827403;29;20128;-89
2023/10/01 00:08:08;;;;;;;870.83;785.20;;;14.50;99.90;;;;;;4841632;29;20048;-88
2023/10/01 00:10:35;;;;;;;884.05;796.80;;;14.50;99.90;;;;;;4827073;29;20041;-88
2023/10/01 00:13:01;;;;;;;937.50;840.60;;;14.60;99.90;;;;;;4826767;29;20053;-89
2023/10/01 00:15:28;;;;;;;971.03;869.35;;;14.50;99.90;;;;;;4827294;29;20041;-89
2023/10/01 00:17:54;;;;;;;968.33;866.55;;;14.50;99.90;;;;;;4826008;29;20057;-88
2023/10/01 00:20:23;;;;;;;980.65;875.13;;;14.50;99.90;;;;;;4827162;29;20049;-87
2023/10/01 00:22:56;;;;;;;972.78;870.78;;;14.50;99.90;;;;;;4835502;29;20140;-88
2023/10/01 00:25:23;;;;;;;942.55;846.28;;;14.50;99.90;;;;;;4821782;29;20045;-89
2023/10/01 00:27:50;;;;;;;921.58;831.13;;;14.50;99.90;;;;;;4826513;29;20061;-90
2023/10/01 00:30:17;;;;;;;895.03;807.55;;;14.50;99.90;;;;;;4839191;29;20049;-89
2023/10/01 00:32:45;;;;;;;941.13;847.38;;;14.50;99.90;;;;;;4859822;29;20092;-88
2023/10/01 00:35:11;;;;;;;878.42;794.33;;;14.40;99.90;;;;;;4844462;29;20104;-89
2023/10/01 00:37:38;;;;;;;966.33;865.83;;;14.50;99.90;;;;;;4859862;29;20088;-89
2023/10/01 00:40:06;;;;;;;965.75;866.50;;;14.50;99.90;;;;;;4832275;29;20056;-89
2023/10/01 00:42:34;;;;;;;977.55;876.08;;;14.50;99.90;;;;;;4845015;29;20037;-88
2023/10/01 00:45:01;;;;;;;974.72;873.38;;;14.50;99.90;;;;;;4842557;29;20124;-89
2023/10/01 00:47:29;;;;;;;954.83;856.33;;;14.50;99.90;;;;;;4834201;29;20136;-88
2023/10/01 00:49:58;;;;;;;916.00;825.40;;;14.50;99.90;;;;;;4843051;29;20080;-88
2023/10/01 00:52:24;;;;;;;964.95;864.72;;;14.50;99.90;;;;;;4844544;29;20132;-89
2023/10/01 00:54:51;;;;;;;928.60;835.28;;;14.50;99.90;;;;;;4831092;29;20132;-89
2023/10/01 00:57:17;;;;;;;974.80;872.80;;;14.50;99.90;;;;;;4844937;29;20132;-89
2023/10/01 00:59:44;;;;;;;891.35;805.55;;;14.50;99.90;;;;;;4842570;29;20048;-89
2023/10/01 01:02:15;;;;;;;964.08;864.97;;;14.50;99.90;;;;;;4835857;29;20045;-90
2023/10/01 01:04:44;;;;;;;917.33;826.70;;;14.50;99.90;;;;;;4840510;29;20079;-89
2023/10/01 01:07:16;;;;;;;911.55;822.55;;;14.50;99.90;;;;;;4834501;29;20045;-89
2023/10/01 01:09:43;;;;;;;896.28;809.67;;;14.50;99.90;;;;;;4841468;29;20071;-88
2023/10/01 01:12:09;;;;;;;848.47;769.65;;;14.50;99.90;;;;;;4834017;29;20080;-89
2023/10/01 01:14:36;;;;;;;937.25;842.67;;;14.50;99.90;;;;;;4837232;29;20053;-89
2023/10/01 01:17:04;;;;;;;961.35;863.00;;;14.50;99.90;;;;;;4837054;29;20045;-90
2023/10/01 01:19:30;;;;;;;881.92;799.35;;;14.50;99.90;;;;;;4841916;29;20077;-89
2023/10/01 01:21:56;;;;;;;942.20;847.08;;;14.50;99.90;;;;;;4843236;29;20041;-89
2023/10/01 01:24:24;;;;;;;930.80;836.83;;;14.50;99.90;;;;;;4833201;29;20053;-88
2023/10/01 01:26:51;;;;;;;877.35;793.55;;;14.50;99.90;;;;;;4842576;29;20127;-90
2023/10/01 01:29:29;;;;;;;935.25;839.90;;;14.50;99.90;;;;;;4844124;29;20497;-90
2023/10/01 01:32:07;;;;;;;950.08;852.85;;;14.50;99.90;;;;;;4858743;29;20084;-90
2023/10/01 01:34:34;;;;;;;948.90;852.92;;;14.50;99.90;;;;;;4833105;29;20037;-90
2023/10/01 01:37:04;;;;;;;961.03;861.95;;;14.40;99.90;;;;;;4842186;29;20087;-89
2023/10/01 01:39:46;;;;;;;890.60;805.55;;;14.40;99.90;;;;;;4825860;29;20059;-89
2023/10/01 01:42:11;;;;;;;875.65;792.85;;;14.40;99.90;;;;;;4825980;29;20536;-90
2023/10/01 01:44:37;;;;;;;930.35;838.10;;;14.40;99.90;;;;;;4826789;29;20089;-90
2023/10/01 01:47:07;;;;;;;895.17;808.92;;;14.40;99.90;;;;;;4826910;29;20044;-90
2023/10/01 01:49:33;;;;;;;944.75;848.90;;;14.40;99.90;;;;;;4825968;29;20128;-89
2023/10/01 01:52:03;;;;;;;939.42;843.70;;;14.40;99.90;;;;;;4826598;29;20502;-90
2023/10/01 01:54:31;;;;;;;912.40;822.65;;;14.40;99.90;;;;;;4826749;29;20531;-90
2023/10/01 01:56:57;;;;;;;889.58;803.90;;;14.40;99.90;;;;;;4825741;29;20046;-90
2023/10/01 01:59:27;;;;;;;909.78;819.40;;;14.40;99.90;;;;;;4826549;29;20050;-90
2023/10/01 02:01:55;;;;;;;933.05;837.75;;;14.30;99.90;;;;;;4825637;29;20105;-90
2023/10/01 02:04:22;;;;;;;969.45;868.13;;;14.30;99.90;;;;;;4838078;29;20096;-90
2023/10/01 02:06:50;;;;;;;955.45;857.67;;;14.30;99.90;;;;;;4832406;29;20041;-90
2023/10/01 02:09:19;;;;;;;892.25;805.17;;;14.30;99.90;;;;;;4843951;29;20100;-90
2023/10/01 02:11:49;;;;;;;932.80;840.20;;;14.30;99.90;;;;;;4836502;29;20045;-90
2023/10/01 02:14:35;;;;;;;914.00;823.58;;;14.30;99.90;;;;;;4839372;29;20071;-90
2023/10/01 02:17:15;;;;;;;956.97;860.47;;;14.30;99.90;;;;;;4843852;29;20052;-90
2023/10/01 02:19:46;;;;;;;915.97;825.78;;;14.30;99.90;;;;;;4837364;29;20053;-90
2023/10/01 02:22:13;;;;;;;952.75;854.03;;;14.30;99.90;;;;;;4838100;29;20057;-90
2023/10/01 02:24:54;;;;;;;935.67;842.03;;;14.30;99.90;;;;;;4844028;29;20053;-90
2023/10/01 02:27:20;;;;;;;920.08;828.47;;;14.30;99.90;;;;;;4831931;29;20054;-91
2023/10/01 02:32:31;;;;;;;949.15;852.53;;;14.30;99.90;;;;;;4861870;29;20053;-90
2023/10/01 02:34:57;;;;;;;923.55;833.63;;;14.30;99.90;;;;;;4862692;29;20704;-91
2023/10/01 02:37:29;;;;;;;944.25;848.53;;;14.30;99.90;;;;;;4862133;29;20044;-90
2023/10/01 02:39:59;;;;;;;963.22;864.72;;;14.30;99.90;;;;;;4847032;29;20069;-90
2023/10/01 02:42:28;;;;;;;942.03;846.95;;;14.30;99.90;;;;;;4846832;29;20052;-90
2023/10/01 02:44:54;;;;;;;956.28;857.78;;;14.30;99.90;;;;;;4846471;29;20037;-90
2023/10/01 02:47:20;;;;;;;961.00;862.13;;;14.40;99.90;;;;;;4862449;29;20059;-89
2023/10/01 02:49:49;;;;;;;967.83;868.50;;;14.30;99.90;;;;;;4846807;29;20067;-90
2023/10/01 02:52:17;;;;;;;965.80;866.58;;;14.30;99.90;;;;;;4847173;29;20091;-90
2023/10/01 02:54:44;;;;;;;937.65;844.30;;;14.30;99.90;;;;;;4846692;29;20386;-90
2023/10/01 02:57:24;;;;;;;882.22;796.92;;;14.30;99.90;;;;;;4846766;29;20501;-90
2023/10/01 03:00:20;;;;;;;909.17;819.83;;;14.30;99.90;;;;;;4846459;29;20102;-90
2023/10/01 03:02:53;;;;;;;969.20;867.85;;;14.30;99.90;;;;;;4846342;29;20144;-90
2023/10/01 03:05:28;;;;;;;;;;;14.30;99.90;;;;;;4846985;29;20037;-90
2023/10/01 03:07:56;;;;;;;935.60;842.15;;;14.30;99.90;;;;;;4845907;29;19943;-90
2023/10/01 03:10:31;;;;;;;919.00;826.80;;;14.30;99.90;;;;;;4846398;29;20040;-89
2023/10/01 03:12:59;;;;;;;934.88;840.95;;;14.30;99.90;;;;;;4846330;29;20051;-90
2023/10/01 03:15:35;;;;;;;922.15;831.50;;;14.30;99.90;;;;;;4846664;29;20045;-90
2023/10/01 03:18:08;;;;;;;959.88;861.38;;;14.30;99.90;;;;;;4846283;29;20136;-90
2023/10/01 03:23:04;;;;;;;919.85;829.47;;;14.30;99.90;;;;;;4861631;29;20103;-90
2023/10/01 03:25:40;;;;;;;941.47;845.55;;;14.30;99.90;;;;;;4846060;29;20521;-90
2023/10/01 03:28:11;;;;;;;922.55;830.92;;;14.30;99.90;;;;;;4846396;29;20052;-91
2023/10/01 03:30:40;;;;;;;920.20;829.13;;;14.30;99.90;;;;;;4855853;29;20049;-91
2023/10/01 03:33:07;;;;;;;951.35;853.85;;;14.30;99.90;;;;;;4877772;29;20464;-90
2023/10/01 03:35:35;;;;;;;933.08;838.88;;;14.30;99.90;;;;;;4861151;29;20037;-90
2023/10/01 03:38:10;;;;;;;959.13;860.88;;;14.30;99.90;;;;;;4861502;29;20401;-90
2023/10/01 03:40:58;;;;;;;947.42;852.97;;;14.30;99.90;;;;;;4861486;29;20049;-90
2023/10/01 03:43:32;;;;;;;941.95;848.03;;;14.30;99.90;;;;;;4876286;29;20053;-90
2023/10/01 03:46:06;;;;;;;933.15;839.67;;;14.30;99.90;;;;;;4860987;29;20056;-90
2023/10/01 03:49:33;;;;;;;921.45;829.58;;;14.30;99.90;;;;;;4860954;29;20037;-91
2023/10/01 03:51:28;;;;;;;955.55;858.75;;;14.20;99.90;;;;;;4876472;29;20080;-90
2023/10/01 03:53:59;;;;;;;937.83;843.15;;;14.20;99.90;;;;;;4861429;29;20052;-90
2023/10/01 03:56:29;;;;;;;954.58;857.28;;;14.30;99.90;;;;;;4861388;29;20120;-90
2023/10/01 03:58:55;;;;;;;949.55;852.42;;;14.30;99.90;;;;;;4861099;29;20045;-91
2023/10/01 04:01:33;;;;;;;917.15;826.60;;;14.30;99.90;;;;;;4861186;29;20057;-91
2023/10/01 04:04:00;;;;;;;897.53;809.00;;;14.30;99.90;;;;;;4857859;29;20235;-90
2023/10/01 04:06:27;;;;;;;915.88;824.70;;;14.30;99.90;;;;;;4859400;29;20103;-90
2023/10/01 04:08:55;;;;;;;933.65;838.97;;;14.30;99.90;;;;;;4860239;29;20121;-90
2023/10/01 04:11:41;;;;;;;903.22;815.13;;;14.30;99.90;;;;;;4861180;29;20037;-90
2023/10/01 04:14:10;;;;;;;955.92;858.50;;;14.30;99.90;;;;;;4861022;29;20057;-90
2023/10/01 04:16:36;;;;;;;939.70;844.40;;;14.30;99.90;;;;;;4860905;29;20141;-90
2023/10/01 04:19:03;;;;;;;926.15;833.88;;;14.30;99.90;;;;;;4860921;29;20096;-90
2023/10/01 04:21:29;;;;;;;962.13;863.15;;;14.30;99.90;;;;;;4860950;29;20044;-90
2023/10/01 04:23:54;;;;;;;901.38;813.63;;;14.30;99.90;;;;;;4860545;29;20064;-90
2023/10/01 04:26:22;;;;;;;927.42;835.38;;;14.30;99.90;;;;;;4857877;29;20037;-91
2023/10/01 04:28:54;;;;;;;948.97;852.50;;;14.30;99.90;;;;;;4855108;29;20053;-91
2023/10/01 04:31:42;;;;;;;957.00;859.83;;;14.30;99.90;;;;;;4860708;29;20076;-90
2023/10/01 04:34:11;;;;;;;949.47;853.70;;;14.40;99.90;;;;;;4876088;29;20053;-91
2023/10/01 04:36:39;;;;;;;956.72;859.40;;;14.40;99.90;;;;;;4861146;29;20486;-90
2023/10/01 04:39:05;;;;;;;947.35;851.63;;;14.40;99.90;;;;;;4860283;29;20037;-91
2023/10/01 04:41:31;;;;;;;954.63;857.55;;;14.40;99.90;;;;;;4860787;29;20160;-91
2023/10/01 04:44:06;;;;;;;929.17;836.70;;;14.40;99.90;;;;;;4859950;29;20117;-91
2023/10/01 04:46:37;;;;;;;959.00;861.15;;;14.40;99.90;;;;;;4876191;29;20053;-90
2023/10/01 04:51:48;;;;;;;960.20;861.70;;;14.40;99.90;;;;;;4875485;29;20045;-91
2023/10/01 04:54:17;;;;;;;910.15;821.05;;;14.40;99.90;;;;;;4860385;29;20508;-90
2023/10/01 04:56:48;;;;;;;900.55;813.28;;;14.40;99.90;;;;;;4859435;29;20041;-89
2023/10/01 04:59:15;;;;;;;908.58;818.63;;;14.40;99.90;;;;;;4860255;29;20045;-90
2023/10/01 05:01:41;;;;;;;861.72;779.83;;;14.40;99.90;;;;;;4859158;29;20637;-89
2023/10/01 05:04:11;;;;;;;923.10;829.20;;;14.40;99.90;;;;;;4859779;29;20478;-88
2023/10/01 05:06:42;;;;;;;942.20;846.38;;;14.40;99.90;;;;;;4855139;29;20105;-89
2023/10/01 05:09:09;;;;;;;951.78;853.83;;;14.30;99.90;;;;;;4852151;29;20064;-88
2023/10/01 05:11:35;;;;;;;965.72;863.17;;;14.30;99.90;;;;;;4858817;29;20184;-88
2023/10/01 05:14:04;;;;;;;915.00;822.90;;;14.30;99.90;;;;;;4858129;29;20049;-88
2023/10/01 05:16:38;;;;;;;952.97;852.45;;;14.30;99.90;;;;;;4859435;29;20072;-90
2023/10/01 05:19:09;;;;;;;;;;;14.30;99.90;;;;;;4860046;29;20084;-90
2023/10/01 05:21:41;;;;;;;920.40;826.35;;;14.30;99.90;;;;;;4859796;29;20410;-90
2023/10/01 05:24:08;;;;;;;949.00;853.03;;;14.30;99.90;;;;;;4859216;29;20045;-90
2023/10/01 05:26:35;;;;;;;926.45;833.22;;;14.20;99.90;;;;;;4859506;29;20061;-89
2023/10/01 05:29:06;;;;;;;977.20;872.65;;;14.30;99.90;;;;;;4858025;29;20056;-90
2023/10/01 05:31:34;;;;;;;977.30;873.55;;;14.30;99.90;;;;;;4859443;29;20049;-90
2023/10/01 05:34:00;;;;;;;961.85;862.08;;;14.30;99.90;;;;;;4858503;29;20132;-90
2023/10/01 05:36:26;;;;;;;971.00;870.28;;;14.20;99.90;;;;;;4843882;29;20093;-90
2023/10/01 05:38:53;;;;;;;962.65;863.25;;;14.20;99.90;;;;;;4843227;29;20064;-88
2023/10/01 05:41:32;;;;;;;971.33;869.60;;;14.20;99.90;;;;;;4844159;29;20053;-90
2023/10/01 05:44:01;;;;;;;966.35;868.08;;;14.20;99.90;;;;;;4843643;29;20060;-90
2023/10/01 05:46:28;;;;;;;982.60;879.97;;;14.20;99.90;;;;;;4844535;29;20105;-90
2023/10/01 05:48:55;;;;;;;964.63;865.60;;;14.30;99.90;;;;;;4843422;29;20049;-90
2023/10/01 05:51:30;;;;;;;967.47;866.75;;;14.20;99.90;;;;;;4844509;29;20045;-90
2023/10/01 05:53:56;;;;;;;975.60;874.22;;;14.20;99.90;;;;;;4843894;29;20045;-91
2023/10/01 05:56:23;;;;;;;979.22;878.22;;;14.20;99.90;;;;;;4844857;29;20079;-91
2023/10/01 05:58:50;;;;;;;951.45;856.15;;;14.30;99.90;;;;;;4843883;29;20052;-91
2023/10/01 06:01:21;;;;;;;959.67;861.42;;;14.20;99.90;;;;;;4844580;29;20049;-90
2023/10/01 06:03:49;;;;;;;913.72;824.13;;;14.20;99.90;;;;;;4844066;29;20037;-91
2023/10/01 06:06:24;;;;;;;901.15;814.88;;;14.30;99.90;;;;;;4845561;29;20048;-92
2023/10/01 06:08:58;;;;;;;903.60;816.47;;;14.30;99.90;;;;;;4847256;29;20057;-90
2023/10/01 06:11:44;;;;;;;950.40;854.03;;;14.20;99.90;;;;;;4847163;29;20064;-91
2023/10/01 06:14:39;;;;;;;935.38;841.55;;;14.20;99.90;;;;;;4870725;29;20154;-91
2023/10/01 06:17:06;;;;;;;952.58;857.30;;;14.20;99.90;;;;;;4847935;29;20053;-92
2023/10/01 06:19:33;;;;;;;940.47;846.90;;;14.20;99.90;;;;;;4862202;29;20051;-90
2023/10/01 06:22:12;;;;;;;923.95;833.38;;;14.20;99.90;;;;;;4848899;29;20531;-90
2023/10/01 06:24:42;;;;;;;959.35;864.28;;;14.30;99.90;;;;;;4848411;29;20061;-90
2023/10/01 06:27:09;;;;;;;937.70;845.17;;;14.30;99.90;;;;;;4846920;29;20049;-90
2023/10/01 06:29:49;;;;;;;974.72;875.03;;;14.30;99.90;;;;;;4846846;29;20516;-91
2023/10/01 06:32:17;;;;;;;954.65;859.20;;;14.30;99.90;;;;;;4862540;29;20080;-91
2023/10/01 06:34:45;;;;;;;987.13;885.65;;;14.30;99.90;;;;;;4846696;29;20097;-91
2023/10/01 06:37:12;;;;;;;997.03;893.72;;;14.30;99.90;;;;;;4862692;29;20128;-90
2023/10/01 06:39:40;;;;;;;957.15;859.45;;;14.40;99.90;;;;;;4847343;29;20084;-91
2023/10/01 06:42:19;;;;;;;944.97;850.58;;;14.40;99.90;;;;;;4848456;29;20049;-91
2023/10/01 06:44:48;;;;;;;935.47;842.60;;;14.40;99.90;;;;;;4846671;29;20044;-92
2023/10/01 06:47:15;;;;;;;946.17;851.08;;;14.40;99.90;;;;;;4860358;29;20073;-92
2023/10/01 06:49:57;;;;;;;969.90;870.70;;;14.50;99.90;;;;;;4846459;29;20516;-91
2023/10/01 06:52:34;;;;;;;933.67;841.97;;;14.50;99.90;;;;;;4848716;29;20049;-94
2023/10/01 06:55:02;;;;;;;947.80;852.60;;;14.60;99.90;;;;;;4848059;29;20127;-89
2023/10/01 06:57:31;;;;;;;965.22;865.13;;;14.60;99.90;;;;;;4846660;29;20052;-91
2023/10/01 06:59:57;;;;;;;953.25;857.28;;;14.70;99.90;;;;;;4846473;29;20056;-94
2023/10/01 07:02:25;;;;;;;970.15;870.97;;;14.70;99.90;;;;;;4847181;29;20056;-91
2023/10/01 07:04:56;;;;;;;941.92;846.20;;;14.80;99.90;;;;;;4846584;29;20041;-92
2023/10/01 07:07:25;;;;;;;863.90;781.53;;;14.80;99.90;;;;;;4846236;29;20052;-94
2023/10/01 07:09:53;;;;;;;822.92;747.30;;;14.80;99.90;;;;;;4861277;29;20048;-92
2023/10/01 07:12:20;;;;;;;869.45;785.42;;;14.90;99.90;;;;;;4846960;29;20049;-90
2023/10/01 07:14:50;;;;;;;886.22;799.45;;;14.90;99.90;;;;;;4845928;29;20520;-91
2023/10/01 07:17:19;;;;;;;859.25;776.72;;;14.90;99.90;;;;;;4844953;29;20190;-91
2023/10/01 07:19:59;;;;;;;810.03;735.85;;;15.00;99.90;;;;;;4840496;29;20512;-90
2023/10/01 07:22:31;;;;;;;798.20;724.28;;;15.10;99.90;;;;;;4861152;29;20063;-90
2023/10/01 07:24:59;;;;;;;835.03;756.83;;;15.10;99.90;;;;;;4839843;29;20051;-91
2023/10/01 07:27:26;;;;;;;839.22;759.95;;;15.10;99.90;;;;;;4845705;29;20127;-91
2023/10/01 07:29:54;;;;;;;844.78;764.78;;;15.20;99.90;;;;;;4845909;29;20060;-90
2023/10/01 07:33:27;;;;;;;;;;;;;;;;;;;;;
2023/10/01 07:50:55;;;;;;;853.22;774.78;;;15.50;99.90;;;;;;4854472;29;20457;-86
2023/10/01 07:55:29;;;;;;;810.10;738.20;;;15.50;99.90;;;;;;4893428;29;20140;-89
2023/10/01 07:57:43;;;;;;;;;;;;;;;;;;;;;
2023/10/01 08:09:26;;;;;;;819.35;746.47;;;15.40;99.90;;;;;;5319303;23;20063;-88
2023/10/01 08:13:04;;;;;;;893.97;809.88;;;15.40;99.90;;;;;;4815446;29;20090;-91
2023/10/01 08:16:13;;;;;;;818.08;744.45;;;15.20;99.90;;;;;;4816891;29;20519;-86
2023/10/01 08:26:57;;;;;;;805.17;732.67;;;15.50;99.90;;;;;;5276971;23;20067;-89
2023/10/01 08:29:07;;;;;;;825.53;751.08;;;15.60;99.90;;;;;;4909440;29;20397;-90
2023/10/01 08:32:08;;;;;;;819.70;745.53;;;15.70;99.90;;;;;;4898183;29;20047;-90
2023/10/01 08:34:27;;;;;;;829.03;752.38;;;15.70;99.90;;;;;;4913619;29;20052;-90
2023/10/01 08:36:56;;;;;;;834.60;754.97;;;15.80;99.90;;;;;;4897495;29;20044;-89
2023/10/01 08:42:08;;;;;;;837.08;758.88;;;15.90;99.90;;;;;;4914595;29;20126;-90
2023/10/01 08:44:45;;;;;;;835.78;756.83;;;15.90;99.90;;;;;;4897390;29;20055;-90
2023/10/01 08:47:31;;;;;;;811.63;736.53;;;16.00;99.90;;;;;;4897304;29;20036;-93
2023/10/01 08:50:17;;;;;;;839.05;760.47;;;16.10;99.90;;;;;;4896214;29;20061;-89
2023/10/01 08:52:52;;;;;;;851.92;772.13;;;16.20;99.90;;;;;;4897744;29;20032;-90
2023/10/01 08:55:23;;;;;;;901.55;814.00;;;16.20;99.90;;;;;;4896599;29;20047;-90
2023/10/01 08:57:52;;;;;;;844.20;765.95;;;16.30;99.90;;;;;;4894831;29;20885;-89
2023/10/01 09:00:21;;;;;;;888.65;801.38;;;16.30;99.90;;;;;;4879313;29;20112;-90
2023/10/01 09:02:50;;;;;;;842.10;763.47;;;16.30;99.90;;;;;;4888868;29;20140;-89
2023/10/01 09:05:24;;;;;;;849.05;767.20;;;16.40;99.90;;;;;;4889595;29;20065;-89
2023/10/01 09:08:15;;;;;;;836.15;756.05;;;16.40;99.90;;;;;;4894246;29;20064;-91
2023/10/01 09:10:50;;;;;;;894.20;806.20;;;16.40;99.90;;;;;;4920178;29;20074;-89
2023/10/01 09:13:21;;;;;;;853.60;772.85;;;16.50;99.90;;;;;;4893655;29;20052;-90
2023/10/01 09:15:54;;;;;;;895.13;809.05;;;16.50;99.90;;;;;;4879000;29;20120;-90
2023/10/01 09:18:22;;;;;;;858.35;775.70;;;16.60;99.90;;;;;;4883961;29;20049;-90
2023/10/01 09:21:06;;;;;;;873.40;791.58;;;16.70;99.90;;;;;;4893428;29;20060;-90
2023/10/01 09:23:54;;;;;;;911.47;823.45;;;16.90;99.90;;;;;;4897040;29;20066;-89
2023/10/01 09:38:18;;;;;;;796.20;723.85;;;17.70;99.90;;;;;;4841882;29;20102;-88
2023/10/01 09:41:29;;;;;;;785.92;713.92;;;18.00;99.90;;;;;;4897167;29;20506;-86
2023/10/01 09:43:58;;;;;;;791.60;718.10;;;18.10;99.90;;;;;;4831073;29;20064;-86
2023/10/01 09:46:53;;;;;;;707.17;643.30;;;18.30;99.90;;;;;;4845966;29;20071;-85
2023/10/01 09:49:30;;;;;;;769.80;699.17;;;18.40;99.90;;;;;;4905417;29;20052;-91
2023/10/01 09:52:03;;;;;;;750.40;682.20;;;18.40;99.90;;;;;;4895088;29;20131;-93
2023/10/01 09:54:41;;;;;;;763.47;693.17;;;18.50;99.90;;;;;;4908428;29;20065;-93
2023/10/01 09:57:12;;;;;;;793.65;719.40;;;18.50;99.90;;;;;;4891556;29;20048;-94
2023/10/01 09:59:39;;;;;;;791.65;718.05;;;18.50;99.90;;;;;;4887349;29;20052;-94
2023/10/01 10:02:06;;;;;;;808.05;730.08;;;18.50;99.90;;;;;;4898313;29;20492;-93
2023/10/01 10:04:34;;;;;;;757.88;685.97;;;18.50;99.90;;;;;;4902590;29;20056;-94
2023/10/01 10:07:01;;;;;;;788.28;715.03;;;18.60;99.90;;;;;;4893503;29;20047;-92
2023/10/01 10:09:30;;;;;;;735.15;668.35;;;18.80;99.90;;;;;;4897407;29;20051;-93
2023/10/01 10:11:56;;;;;;;804.92;727.67;;;19.00;99.90;;;;;;4889844;29;20044;-92
2023/10/01 10:14:27;;;;;;;788.28;714.00;;;19.20;99.90;;;;;;4890613;29;20064;-87
2023/10/01 10:17:01;;;;;;;796.00;722.38;;;19.30;99.90;;;;;;4900053;29;20044;-93
2023/10/01 10:19:30;;;;;;;795.65;720.20;;;19.50;99.90;;;;;;4887295;29;20440;-92
2023/10/01 10:24:29;;;;;;;808.92;731.30;;;19.80;99.90;;;;;;4916104;29;20052;-91
2023/10/01 10:26:57;;;;;;;782.97;709.28;;;19.90;99.90;;;;;;4884565;29;20056;-92
2023/10/01 10:29:24;;;;;;;605.50;548.85;;;20.00;99.90;;;;;;4897924;29;20052;-92
2023/10/01 10:32:10;;;;;;;803.50;726.38;;;20.10;99.90;;;;;;4897457;29;20107;-92
2023/10/01 10:34:36;;;;;;;779.60;704.92;;;20.10;99.90;;;;;;4897127;29;20080;-92
2023/10/01 10:37:06;;;;;;;776.72;701.42;;;20.20;99.90;;;;;;4894113;29;20131;-91
2023/10/01 10:39:47;;;;;;;701.75;633.17;;;20.20;99.90;;;;;;4898996;29;20052;-87
2023/10/01 10:42:28;;;;;;;555.88;501.67;;;20.20;99.90;;;;;;4907547;29;20057;-90
2023/10/01 10:45:22;;;;;;;578.78;527.92;;;20.20;99.90;;;;;;4893817;29;20044;-92
2023/10/01 10:48:01;;;;;;;563.67;513.65;;;20.10;99.90;;;;;;4892646;29;20049;-90
2023/10/01 10:50:45;;;;;;;589.85;533.40;;;20.00;99.90;;;;;;4902969;29;20254;-86
2023/10/01 10:53:19;;;;;;;594.80;536.97;;;19.90;99.90;;;;;;4912683;29;20040;-87
2023/10/01 10:56:04;;;;;;;494.27;449.52;;;19.90;99.90;;;;;;4896815;29;20048;-86
2023/10/01 10:58:37;;;;;;;587.67;530.10;;;19.90;99.90;;;;;;4891019;29;20127;-87
2023/10/01 11:01:16;;;;;;;593.50;536.15;;;19.90;99.90;;;;;;4909341;29;20051;-87
2023/10/01 11:03:44;;;;;;;508.95;463.38;;;19.90;99.90;;;;;;4906746;29;20056;-86
2023/10/01 11:06:16;;;;;;;797.65;718.17;;;19.90;99.90;;;;;;4896942;29;20032;-88
2023/10/01 11:08:50;;;;;;;488.48;442.67;;;19.90;99.90;;;;;;4895766;29;20164;-86
2023/10/01 11:11:24;;;;;;;603.05;544.95;;;20.00;99.90;;;;;;4896500;29;20047;-88
2023/10/01 11:14:00;;;;;;;544.10;494.13;;;19.90;99.90;;;;;;4894413;29;20048;-87
2023/10/01 11:16:33;;;;;;;580.53;524.58;;;19.90;99.90;;;;;;4895364;29;20040;-87
2023/10/01 11:19:12;;;;;;;545.30;494.85;;;19.90;99.90;;;;;;4903657;29;20492;-88
2023/10/01 11:21:55;;;;;;;537.67;488.48;;;19.80;99.90;;;;;;4894754;29;20535;-87
2023/10/01 11:24:29;;;;;;;714.92;643.65;;;19.80;99.90;;;;;;4898113;29;20087;-90
2023/10/01 11:27:15;;;;;;;764.65;682.97;;;19.80;99.90;;;;;;4895585;29;20120;-90
2023/10/01 11:29:58;;;;;;;537.00;490.25;;;19.80;99.90;;;;;;4883319;29;20081;-87
2023/10/01 11:32:58;;;;;;;764.70;686.38;;;19.90;99.90;;;;;;4886694;29;20044;-90
2023/10/01 11:35:31;;;;;;;633.38;577.25;;;19.90;99.90;;;;;;4886165;29;20497;-90
2023/10/01 11:38:07;;;;;;;610.08;557.30;;;20.00;99.90;;;;;;4889418;29;20484;-90
2023/10/01 11:43:32;;;;;;;619.92;565.95;;;20.10;99.90;;;;;;4918199;29;20143;-93
2023/10/01 11:46:39;;;;;;;765.75;691.42;;;20.10;99.90;;;;;;4888377;29;20064;-90
2023/10/01 11:49:17;;;;;;;626.00;569.88;;;20.20;99.90;;;;;;4882612;29;20053;-91
2023/10/01 11:51:54;;;;;;;674.20;614.75;;;20.30;99.90;;;;;;4883976;29;20059;-91
2023/10/01 11:54:44;;;;;;;630.58;574.13;;;20.40;99.90;;;;;;4900015;29;20051;-93
2023/10/01 11:57:31;;;;;;;745.95;676.35;;;20.40;99.90;;;;;;4896435;29;20453;-93
2023/10/01 11:59:59;;;;;;;673.40;613.80;;;20.50;99.90;;;;;;4886592;29;20500;-91
2023/10/01 12:02:26;;;;;;;656.78;599.47;;;20.50;99.90;;;;;;4890874;29;20060;-91
2023/10/01 12:04:57;;;;;;;703.60;641.33;;;20.50;99.90;;;;;;4895330;29;20421;-91
2023/10/01 12:07:32;;;;;;;652.53;592.45;;;20.50;99.90;;;;;;4895734;29;20044;-93
2023/10/01 12:09:59;;;;;;;661.33;602.03;;;20.40;99.90;;;;;;4896566;29;20057;-92
2023/10/01 12:12:28;;;;;;;661.17;602.35;;;20.40;99.90;;;;;;4896108;29;20064;-90
2023/10/01 12:14:55;;;;;;;700.80;637.53;;;20.40;99.90;;;;;;4889763;29;20049;-92
2023/10/01 12:17:26;;;;;;;672.47;612.03;;;20.40;99.90;;;;;;4895894;29;20126;-94
2023/10/01 12:19:53;;;;;;;625.33;570.22;;;20.40;99.90;;;;;;4893562;29;20059;-93
2023/10/01 12:22:23;;;;;;;678.97;617.75;;;20.40;99.90;;;;;;4889917;29;20047;-93
2023/10/01 12:24:57;;;;;;;700.75;638.22;;;20.50;99.90;;;;;;4884518;29;20472;-93
2023/10/01 12:27:37;;;;;;;627.38;568.00;;;20.50;99.90;;;;;;4893884;29;20060;-94
2023/10/01 12:30:10;;;;;;;624.40;565.40;;;20.60;99.90;;;;;;4899076;29;20044;-93
2023/10/01 12:32:41;;;;;;;638.17;577.05;;;20.60;99.90;;;;;;4882423;29;20044;-93
2023/10/01 12:35:18;;;;;;;754.78;679.78;;;20.50;99.90;;;;;;4881252;29;20048;-94
2023/10/01 12:37:45;;;;;;;714.83;644.85;;;20.50;99.90;;;;;;4894458;29;20449;-93
2023/10/01 12:40:17;;;;;;;608.42;551.20;;;20.50;99.90;;;;;;4892166;29;20059;-94
2023/10/01 12:42:50;;;;;;;598.40;542.63;;;20.50;99.90;;;;;;4918649;29;20131;-92
2023/10/01 12:45:27;;;;;;;580.10;525.58;;;20.50;99.90;;;;;;4897242;29;20556;-93
2023/10/01 12:48:07;;;;;;;602.70;546.97;;;20.50;99.90;;;;;;4894617;29;20140;-92
2023/10/01 12:50:34;;;;;;;669.47;609.70;;;20.60;99.90;;;;;;4897622;29;20036;-92
2023/10/01 12:53:19;;;;;;;646.72;589.97;;;20.60;99.90;;;;;;4886180;29;20049;-92
2023/10/01 12:56:48;;;;;;;649.53;591.63;;;20.80;99.90;;;;;;4885173;29;20040;-94
2023/10/01 12:58:43;;;;;;;700.30;631.65;;;20.80;99.90;;;;;;4903722;29;20052;-93
2023/10/01 13:04:37;;;;;;;622.10;562.60;;;21.00;99.90;;;;;;4895521;29;20056;-95
2023/10/01 13:07:38;;;;;;;785.65;703.72;;;21.10;99.90;;;;;;4906816;29;20583;-95
2023/10/01 13:10:07;;;;;;;732.63;661.25;;;21.20;99.90;;;;;;4888468;29;20052;-95
2023/10/01 13:15:38;;;;;;;732.42;660.78;;;21.30;99.90;;;;;;4904246;29;20052;-95
2023/10/01 13:23:24;;;;;;;749.67;675.58;;;21.40;99.90;;;;;;4903343;29;20060;-94
2023/10/01 13:26:05;;;;;;;771.40;696.50;;;21.40;99.90;;;;;;4894663;29;20123;-94
2023/10/01 13:28:45;;;;;;;839.38;755.05;;;21.40;99.90;;;;;;4878910;29;20048;-93
2023/10/01 13:34:06;;;;;;;756.97;681.75;;;21.40;99.90;;;;;;4895478;29;20115;-95
2023/10/01 13:36:50;;;;;;;797.72;719.38;;;21.30;99.90;;;;;;4881637;29;20112;-95
2023/10/01 13:39:44;;;;;;;768.83;694.25;;;21.20;99.90;;;;;;4897611;29;20040;-96
2023/10/01 14:09:47;;;;;;;781.67;703.33;;;21.20;99.90;;;;;;4898260;29;20052;-93
2023/10/01 14:12:15;;;;;;;784.72;706.30;;;21.20;99.90;;;;;;4905478;29;20045;-94
2023/10/01 14:14:44;;;;;;;796.10;718.45;;;21.20;99.90;;;;;;4895560;29;20136;-94
2023/10/01 14:17:16;;;;;;;747.85;674.65;;;21.20;99.90;;;;;;4890925;29;20041;-94
2023/10/01 14:19:42;;;;;;;777.72;700.55;;;21.10;99.90;;;;;;4878297;29;20174;-94
2023/10/01 14:22:19;;;;;;;794.72;716.72;;;21.10;99.90;;;;;;4883718;29;20052;-92